sensor_id;sensor_type;location;lat;lon;timestamp;temperature;humidity
63875;DHT22;51595;24.180;-110.296;2022-08-19T00:00:31;31.00;99.90
63875;DHT22;51595;24.180;-110.296;2022-08-19T00:02:57;31.00;99.90
63875;DHT22;51595;24.180;-110.296;2022-08-19T00:05:24;31.00;99.90
63875;DHT22;51595;24.180;-110.296;2022-08-19T00:07:50;31.10;99.90
63875;DHT22;51595;24.180;-110.296;2022-08-19T00:10:19;31.20;99.90
63875;DHT22;51595;24.180;-110.296;2022-08-19T00:12:45;31.30;99.90
63875;DHT22;51595;24.180;-110.296;2022-08-19T00:15:14;31.40;99.90
63875;DHT22;51595;24.180;-110.296;2022-08-19T00:17:45;31.40;99.90
63875;DHT22;51595;24.180;-110.296;2022-08-19T00:20:15;31.40;99.90
63875;DHT22;51595;24.180;-110.296;2022-08-19T00:22:44;31.30;99.90
63875;DHT22;51595;24.180;-110.296;2022-08-19T00:25:11;31.30;99.90
63875;DHT22;51595;24.180;-110.296;2022-08-19T00:27:38;31.20;99.90
63875;DHT22;51595;24.180;-110.296;2022-08-19T00:30:06;31.10;99.90
63875;DHT22;51595;24.180;-110.296;2022-08-19T00:32:33;31.00;99.90
63875;DHT22;51595;24.180;-110.296;2022-08-19T00:35:00;31.00;99.90
63875;DHT22;51595;24.180;-110.296;2022-08-19T00:37:27;31.00;99.90
63875;DHT22;51595;24.180;-110.296;2022-08-19T00:39:54;30.90;99.90
63875;DHT22;51595;24.180;-110.296;2022-08-19T00:42:21;31.00;99.90
63875;DHT22;51595;24.180;-110.296;2022-08-19T00:44:48;30.90;99.90
63875;DHT22;51595;24.180;-110.296;2022-08-19T00:47:19;30.70;99.90
63875;DHT22;51595;24.180;-110.296;2022-08-19T00:49:51;30.70;99.90
63875;DHT22;51595;24.180;-110.296;2022-08-19T00:52:29;30.70;99.90
63875;DHT22;51595;24.180;-110.296;2022-08-19T00:54:57;30.60;99.90
63875;DHT22;51595;24.180;-110.296;2022-08-19T00:57:35;30.50;99.90
63875;DHT22;51595;24.180;-110.296;2022-08-19T01:00:11;30.40;99.90
63875;DHT22;51595;24.180;-110.296;2022-08-19T01:02:41;30.40;99.90
63875;DHT22;51595;24.180;-110.296;2022-08-19T01:05:17;30.40;99.90
63875;DHT22;51595;24.180;-110.296;2022-08-19T01:07:46;30.50;99.90
63875;DHT22;51595;24.180;-110.296;2022-08-19T01:10:19;30.40;99.90
63875;DHT22;51595;24.180;-110.296;2022-08-19T01:12:47;30.30;99.90
63875;DHT22;51595;24.180;-110.296;2022-08-19T01:15:19;30.30;99.90
63875;DHT22;51595;24.180;-110.296;2022-08-19T01:17:46;30.40;99.90
63875;DHT22;51595;24.180;-110.296;2022-08-19T01:20:17;30.40;99.90
63875;DHT22;51595;24.180;-110.296;2022-08-19T01:22:52;30.40;99.90
63875;DHT22;51595;24.180;-110.296;2022-08-19T01:25:24;30.40;99.90
63875;DHT22;51595;24.180;-110.296;2022-08-19T01:27:53;30.00;99.90
63875;DHT22;51595;24.180;-110.296;2022-08-19T01:30:26;30.10;99.90
63875;DHT22;51595;24.180;-110.296;2022-08-19T01:32:57;30.00;99.90
63875;DHT22;51595;24.180;-110.296;2022-08-19T01:35:27;30.00;99.90
63875;DHT22;51595;24.180;-110.296;2022-08-19T01:37:58;29.90;99.90
63875;DHT22;51595;24.180;-110.296;2022-08-19T01:40:30;30.00;99.90
63875;DHT22;51595;24.180;-110.296;2022-08-19T01:42:57;29.90;99.90
63875;DHT22;51595;24.180;-110.296;2022-08-19T01:45:26;29.80;99.90
63875;DHT22;51595;24.180;-110.296;2022-08-19T01:47:56;29.80;99.90
63875;DHT22;51595;24.180;-110.296;2022-08-19T01:50:23;29.70;99.90
63875;DHT22;51595;24.180;-110.296;2022-08-19T01:52:50;29.90;99.90
63875;DHT22;51595;24.180;-110.296;2022-08-19T01:55:20;29.90;99.90
63875;DHT22;51595;24.180;-110.296;2022-08-19T01:57:54;29.50;99.90
63875;DHT22;51595;24.180;-110.296;2022-08-19T02:00:24;29.50;99.90
63875;DHT22;51595;24.180;-110.296;2022-08-19T02:02:51;29.60;99.90
63875;DHT22;51595;24.180;-110.296;2022-08-19T02:05:17;29.60;99.90
63875;DHT22;51595;24.180;-110.296;2022-08-19T02:07:47;29.50;99.90
63875;DHT22;51595;24.180;-110.296;2022-08-19T02:10:19;29.40;99.90
63875;DHT22;51595;24.180;-110.296;2022-08-19T02:12:46;29.40;99.90
63875;DHT22;51595;24.180;-110.296;2022-08-19T02:15:13;29.50;99.90
63875;DHT22;51595;24.180;-110.296;2022-08-19T02:17:40;29.50;99.90
63875;DHT22;51595;24.180;-110.296;2022-08-19T02:20:07;29.40;99.90
63875;DHT22;51595;24.180;-110.296;2022-08-19T02:22:34;29.50;99.90
63875;DHT22;51595;24.180;-110.296;2022-08-19T02:25:01;29.50;99.90
63875;DHT22;51595;24.180;-110.296;2022-08-19T02:27:27;29.50;99.90
63875;DHT22;51595;24.180;-110.296;2022-08-19T02:29:54;29.40;99.90
63875;DHT22;51595;24.180;-110.296;2022-08-19T02:32:20;29.40;99.90
63875;DHT22;51595;24.180;-110.296;2022-08-19T02:34:48;29.40;99.90
63875;DHT22;51595;24.180;-110.296;2022-08-19T02:37:15;29.20;99.90
63875;DHT22;51595;24.180;-110.296;2022-08-19T02:39:59;29.20;99.90
63875;DHT22;51595;24.180;-110.296;2022-08-19T02:42:26;29.20;99.90
63875;DHT22;51595;24.180;-110.296;2022-08-19T02:44:52;29.20;99.90
63875;DHT22;51595;24.180;-110.296;2022-08-19T02:47:21;29.10;99.90
63875;DHT22;51595;24.180;-110.296;2022-08-19T02:49:47;29.00;99.90
63875;DHT22;51595;24.180;-110.296;2022-08-19T02:52:18;29.00;99.90
63875;DHT22;51595;24.180;-110.296;2022-08-19T02:54:45;29.10;99.90
63875;DHT22;51595;24.180;-110.296;2022-08-19T02:57:11;29.10;99.90
63875;DHT22;51595;24.180;-110.296;2022-08-19T02:59:38;28.90;99.90
63875;DHT22;51595;24.180;-110.296;2022-08-19T03:02:05;28.90;99.90
63875;DHT22;51595;24.180;-110.296;2022-08-19T03:04:32;29.00;99.90
63875;DHT22;51595;24.180;-110.296;2022-08-19T03:06:58;28.90;99.90
63875;DHT22;51595;24.180;-110.296;2022-08-19T03:09:25;28.80;99.90
63875;DHT22;51595;24.180;-110.296;2022-08-19T03:11:51;28.80;99.90
63875;DHT22;51595;24.180;-110.296;2022-08-19T03:14:17;28.90;99.90
63875;DHT22;51595;24.180;-110.296;2022-08-19T03:16:47;28.90;99.90
63875;DHT22;51595;24.180;-110.296;2022-08-19T03:19:15;28.90;99.90
63875;DHT22;51595;24.180;-110.296;2022-08-19T03:21:43;29.00;99.90
63875;DHT22;51595;24.180;-110.296;2022-08-19T03:24:14;29.10;99.90
63875;DHT22;51595;24.180;-110.296;2022-08-19T03:26:43;29.10;99.90
63875;DHT22;51595;24.180;-110.296;2022-08-19T03:29:11;29.10;99.90
63875;DHT22;51595;24.180;-110.296;2022-08-19T03:31:39;29.00;99.90
63875;DHT22;51595;24.180;-110.296;2022-08-19T03:34:06;28.90;99.90
63875;DHT22;51595;24.180;-110.296;2022-08-19T03:36:33;28.80;99.90
63875;DHT22;51595;24.180;-110.296;2022-08-19T03:39:01;28.60;99.90
63875;DHT22;51595;24.180;-110.296;2022-08-19T03:41:29;28.80;99.90
63875;DHT22;51595;24.180;-110.296;2022-08-19T03:43:57;28.80;99.90
63875;DHT22;51595;24.180;-110.296;2022-08-19T03:46:27;28.80;99.90
63875;DHT22;51595;24.180;-110.296;2022-08-19T03:48:56;28.70;99.90
63875;DHT22;51595;24.180;-110.296;2022-08-19T03:51:29;28.70;99.90
63875;DHT22;51595;24.180;-110.296;2022-08-19T03:53:58;28.50;99.90
63875;DHT22;51595;24.180;-110.296;2022-08-19T03:56:26;28.40;99.90
63875;DHT22;51595;24.180;-110.296;2022-08-19T03:58:55;28.30;99.90
63875;DHT22;51595;24.180;-110.296;2022-08-19T04:01:25;28.30;99.90
63875;DHT22;51595;24.180;-110.296;2022-08-19T04:03:53;28.30;99.90
63875;DHT22;51595;24.180;-110.296;2022-08-19T04:06:27;28.20;99.90
63875;DHT22;51595;24.180;-110.296;2022-08-19T04:08:54;28.30;99.90
63875;DHT22;51595;24.180;-110.296;2022-08-19T04:11:25;28.40;99.90
63875;DHT22;51595;24.180;-110.296;2022-08-19T04:13:53;28.40;99.90
63875;DHT22;51595;24.180;-110.296;2022-08-19T04:16:22;28.30;99.90
63875;DHT22;51595;24.180;-110.296;2022-08-19T04:18:50;28.20;99.90
63875;DHT22;51595;24.180;-110.296;2022-08-19T04:21:23;28.20;99.90
63875;DHT22;51595;24.180;-110.296;2022-08-19T04:23:49;28.20;99.90
63875;DHT22;51595;24.180;-110.296;2022-08-19T04:26:19;28.20;99.90
63875;DHT22;51595;24.180;-110.296;2022-08-19T04:28:46;28.10;99.90
63875;DHT22;51595;24.180;-110.296;2022-08-19T04:31:19;28.20;99.90
63875;DHT22;51595;24.180;-110.296;2022-08-19T04:33:46;28.30;99.90
63875;DHT22;51595;24.180;-110.296;2022-08-19T04:36:22;28.30;99.90
63875;DHT22;51595;24.180;-110.296;2022-08-19T04:38:48;28.20;99.90
63875;DHT22;51595;24.180;-110.296;2022-08-19T04:41:16;28.00;99.90
63875;DHT22;51595;24.180;-110.296;2022-08-19T04:44:01;28.00;99.90
63875;DHT22;51595;24.180;-110.296;2022-08-19T04:46:28;28.10;99.90
63875;DHT22;51595;24.180;-110.296;2022-08-19T04:49:00;28.10;99.90
63875;DHT22;51595;24.180;-110.296;2022-08-19T04:51:27;28.20;99.90
63875;DHT22;51595;24.180;-110.296;2022-08-19T04:53:54;28.10;99.90
63875;DHT22;51595;24.180;-110.296;2022-08-19T04:56:21;28.00;99.90
63875;DHT22;51595;24.180;-110.296;2022-08-19T04:58:50;28.00;99.90
63875;DHT22;51595;24.180;-110.296;2022-08-19T05:01:29;28.00;99.90
63875;DHT22;51595;24.180;-110.296;2022-08-19T05:03:56;28.00;99.90
63875;DHT22;51595;24.180;-110.296;2022-08-19T05:06:23;28.10;99.90
63875;DHT22;51595;24.180;-110.296;2022-08-19T05:08:49;28.00;99.90
63875;DHT22;51595;24.180;-110.296;2022-08-19T05:11:28;28.00;99.90
63875;DHT22;51595;24.180;-110.296;2022-08-19T05:13:55;28.00;99.90
63875;DHT22;51595;24.180;-110.296;2022-08-19T05:16:23;28.10;99.90
63875;DHT22;51595;24.180;-110.296;2022-08-19T05:18:50;28.20;99.90
63875;DHT22;51595;24.180;-110.296;2022-08-19T05:21:35;28.20;99.90
63875;DHT22;51595;24.180;-110.296;2022-08-19T05:24:21;28.20;99.90
63875;DHT22;51595;24.180;-110.296;2022-08-19T05:26:49;28.20;99.90
63875;DHT22;51595;24.180;-110.296;2022-08-19T05:29:20;28.20;99.90
63875;DHT22;51595;24.180;-110.296;2022-08-19T05:31:49;28.00;99.90
63875;DHT22;51595;24.180;-110.296;2022-08-19T05:34:17;27.90;99.90
63875;DHT22;51595;24.180;-110.296;2022-08-19T05:36:44;27.90;99.90
63875;DHT22;51595;24.180;-110.296;2022-08-19T05:39:14;27.80;99.90
63875;DHT22;51595;24.180;-110.296;2022-08-19T05:41:49;27.80;99.90
63875;DHT22;51595;24.180;-110.296;2022-08-19T05:44:16;27.80;99.90
63875;DHT22;51595;24.180;-110.296;2022-08-19T05:46:44;27.80;99.90
63875;DHT22;51595;24.180;-110.296;2022-08-19T05:49:13;27.70;99.90
63875;DHT22;51595;24.180;-110.296;2022-08-19T05:51:42;27.70;99.90
63875;DHT22;51595;24.180;-110.296;2022-08-19T05:54:09;27.60;99.90
63875;DHT22;51595;24.180;-110.296;2022-08-19T05:56:40;27.70;99.90
63875;DHT22;51595;24.180;-110.296;2022-08-19T05:59:08;27.60;99.90
63875;DHT22;51595;24.180;-110.296;2022-08-19T06:01:42;27.50;99.90
63875;DHT22;51595;24.180;-110.296;2022-08-19T06:04:10;27.60;99.90
63875;DHT22;51595;24.180;-110.296;2022-08-19T06:06:36;27.60;99.90
63875;DHT22;51595;24.180;-110.296;2022-08-19T06:09:07;27.60;99.90
63875;DHT22;51595;24.180;-110.296;2022-08-19T06:11:38;27.60;99.90
63875;DHT22;51595;24.180;-110.296;2022-08-19T06:14:11;27.70;99.90
63875;DHT22;51595;24.180;-110.296;2022-08-19T06:16:39;27.60;99.90
63875;DHT22;51595;24.180;-110.296;2022-08-19T06:19:17;27.70;99.90
63875;DHT22;51595;24.180;-110.296;2022-08-19T06:21:46;27.60;99.90
63875;DHT22;51595;24.180;-110.296;2022-08-19T06:24:15;27.60;99.90
63875;DHT22;51595;24.180;-110.296;2022-08-19T06:26:43;27.70;99.90
63875;DHT22;51595;24.180;-110.296;2022-08-19T06:29:11;27.60;99.90
63875;DHT22;51595;24.180;-110.296;2022-08-19T06:31:43;27.50;99.90
63875;DHT22;51595;24.180;-110.296;2022-08-19T06:34:10;27.60;99.90
63875;DHT22;51595;24.180;-110.296;2022-08-19T06:36:40;27.60;99.90
63875;DHT22;51595;24.180;-110.296;2022-08-19T06:39:13;27.80;99.90
63875;DHT22;51595;24.180;-110.296;2022-08-19T06:41:45;27.70;99.90
63875;DHT22;51595;24.180;-110.296;2022-08-19T06:44:13;27.70;99.90
63875;DHT22;51595;24.180;-110.296;2022-08-19T06:46:40;27.50;99.90
63875;DHT22;51595;24.180;-110.296;2022-08-19T06:49:08;27.50;99.90
63875;DHT22;51595;24.180;-110.296;2022-08-19T06:51:41;27.50;99.90
63875;DHT22;51595;24.180;-110.296;2022-08-19T06:54:08;27.50;99.90
63875;DHT22;51595;24.180;-110.296;2022-08-19T06:56:36;27.60;99.90
63875;DHT22;51595;24.180;-110.296;2022-08-19T06:59:08;27.60;99.90
63875;DHT22;51595;24.180;-110.296;2022-08-19T07:01:44;27.70;99.90
63875;DHT22;51595;24.180;-110.296;2022-08-19T07:04:17;27.60;99.90
63875;DHT22;51595;24.180;-110.296;2022-08-19T07:06:44;27.50;99.90
63875;DHT22;51595;24.180;-110.296;2022-08-19T07:09:16;27.50;99.90
63875;DHT22;51595;24.180;-110.296;2022-08-19T07:11:48;27.50;99.90
63875;DHT22;51595;24.180;-110.296;2022-08-19T07:14:17;27.60;99.90
63875;DHT22;51595;24.180;-110.296;2022-08-19T07:16:45;27.70;99.90
63875;DHT22;51595;24.180;-110.296;2022-08-19T07:19:13;27.60;99.90
63875;DHT22;51595;24.180;-110.296;2022-08-19T07:21:40;27.60;99.90
63875;DHT22;51595;24.180;-110.296;2022-08-19T07:24:07;27.50;99.90
63875;DHT22;51595;24.180;-110.296;2022-08-19T07:26:39;27.40;99.90
63875;DHT22;51595;24.180;-110.296;2022-08-19T07:29:06;27.40;99.90
63875;DHT22;51595;24.180;-110.296;2022-08-19T07:31:33;27.40;99.90
63875;DHT22;51595;24.180;-110.296;2022-08-19T07:34:04;27.50;99.90
63875;DHT22;51595;24.180;-110.296;2022-08-19T07:36:34;27.60;99.90
63875;DHT22;51595;24.180;-110.296;2022-08-19T07:39:03;27.50;99.90
63875;DHT22;51595;24.180;-110.296;2022-08-19T07:41:30;27.50;99.90
63875;DHT22;51595;24.180;-110.296;2022-08-19T07:43:58;27.60;99.90
63875;DHT22;51595;24.180;-110.296;2022-08-19T07:46:25;27.60;99.90
63875;DHT22;51595;24.180;-110.296;2022-08-19T07:48:54;27.70;99.90
63875;DHT22;51595;24.180;-110.296;2022-08-19T07:51:21;27.60;99.90
63875;DHT22;51595;24.180;-110.296;2022-08-19T07:53:48;27.60;99.90
63875;DHT22;51595;24.180;-110.296;2022-08-19T07:56:17;27.50;99.90
63875;DHT22;51595;24.180;-110.296;2022-08-19T07:58:46;27.50;99.90
63875;DHT22;51595;24.180;-110.296;2022-08-19T08:01:17;27.40;99.90
63875;DHT22;51595;24.180;-110.296;2022-08-19T08:03:44;27.40;99.90
63875;DHT22;51595;24.180;-110.296;2022-08-19T08:06:30;27.40;99.90
63875;DHT22;51595;24.180;-110.296;2022-08-19T08:09:17;27.40;99.90
63875;DHT22;51595;24.180;-110.296;2022-08-19T08:11:57;27.40;99.90
63875;DHT22;51595;24.180;-110.296;2022-08-19T08:14:33;27.30;99.90
63875;DHT22;51595;24.180;-110.296;2022-08-19T08:17:01;27.10;99.90
63875;DHT22;51595;24.180;-110.296;2022-08-19T08:19:28;27.10;99.90
63875;DHT22;51595;24.180;-110.296;2022-08-19T08:21:57;27.10;99.90
63875;DHT22;51595;24.180;-110.296;2022-08-19T08:24:26;27.20;99.90
63875;DHT22;51595;24.180;-110.296;2022-08-19T08:26:53;27.10;99.90
63875;DHT22;51595;24.180;-110.296;2022-08-19T08:29:19;27.20;99.90
63875;DHT22;51595;24.180;-110.296;2022-08-19T08:31:47;27.10;99.90
63875;DHT22;51595;24.180;-110.296;2022-08-19T08:34:14;27.10;99.90
63875;DHT22;51595;24.180;-110.296;2022-08-19T08:36:43;27.00;99.90
63875;DHT22;51595;24.180;-110.296;2022-08-19T08:39:17;27.10;99.90
63875;DHT22;51595;24.180;-110.296;2022-08-19T08:42:05;27.10;99.90
63875;DHT22;51595;24.180;-110.296;2022-08-19T08:44:48;27.00;99.90
63875;DHT22;51595;24.180;-110.296;2022-08-19T08:47:18;26.90;99.90
63875;DHT22;51595;24.180;-110.296;2022-08-19T08:50:03;27.00;99.90
63875;DHT22;51595;24.180;-110.296;2022-08-19T08:52:45;26.80;99.90
63875;DHT22;51595;24.180;-110.296;2022-08-19T08:55:25;26.90;99.90
63875;DHT22;51595;24.180;-110.296;2022-08-19T09:00:31;27.20;99.90
63875;DHT22;51595;24.180;-110.296;2022-08-19T09:03:00;27.20;99.90
63875;DHT22;51595;24.180;-110.296;2022-08-19T09:06:04;27.20;99.90
63875;DHT22;51595;24.180;-110.296;2022-08-19T09:16:41;26.90;99.90
63875;DHT22;51595;24.180;-110.296;2022-08-19T09:19:09;26.80;99.90
63875;DHT22;51595;24.180;-110.296;2022-08-19T09:21:36;26.80;99.90
63875;DHT22;51595;24.180;-110.296;2022-08-19T09:24:05;26.90;99.90
63875;DHT22;51595;24.180;-110.296;2022-08-19T09:26:32;26.90;99.90
63875;DHT22;51595;24.180;-110.296;2022-08-19T09:28:59;27.00;99.90
63875;DHT22;51595;24.180;-110.296;2022-08-19T09:31:29;27.00;99.90
63875;DHT22;51595;24.180;-110.296;2022-08-19T09:33:56;26.80;99.90
63875;DHT22;51595;24.180;-110.296;2022-08-19T09:36:24;26.70;99.90
63875;DHT22;51595;24.180;-110.296;2022-08-19T09:38:52;26.70;99.90
63875;DHT22;51595;24.180;-110.296;2022-08-19T09:41:22;26.60;99.90
63875;DHT22;51595;24.180;-110.296;2022-08-19T09:43:51;26.60;99.90
63875;DHT22;51595;24.180;-110.296;2022-08-19T09:46:19;26.70;99.90
63875;DHT22;51595;24.180;-110.296;2022-08-19T09:48:47;26.60;99.90
63875;DHT22;51595;24.180;-110.296;2022-08-19T09:51:18;26.80;99.90
63875;DHT22;51595;24.180;-110.296;2022-08-19T09:53:47;26.60;99.90
63875;DHT22;51595;24.180;-110.296;2022-08-19T09:56:18;26.60;99.90
63875;DHT22;51595;24.180;-110.296;2022-08-19T09:58:44;26.70;99.90
63875;DHT22;51595;24.180;-110.296;2022-08-19T10:01:20;26.80;99.90
63875;DHT22;51595;24.180;-110.296;2022-08-19T10:03:52;26.90;99.90
63875;DHT22;51595;24.180;-110.296;2022-08-19T10:06:20;26.90;99.90
63875;DHT22;51595;24.180;-110.296;2022-08-19T10:08:48;26.90;99.90
63875;DHT22;51595;24.180;-110.296;2022-08-19T10:11:14;26.70;99.90
63875;DHT22;51595;24.180;-110.296;2022-08-19T10:13:44;26.80;99.90
63875;DHT22;51595;24.180;-110.296;2022-08-19T10:16:13;26.70;99.90
63875;DHT22;51595;24.180;-110.296;2022-08-19T10:18:41;26.70;99.90
63875;DHT22;51595;24.180;-110.296;2022-08-19T10:21:13;26.80;99.90
63875;DHT22;51595;24.180;-110.296;2022-08-19T10:23:43;26.70;99.90
63875;DHT22;51595;24.180;-110.296;2022-08-19T10:26:16;26.80;99.90
63875;DHT22;51595;24.180;-110.296;2022-08-19T10:28:43;26.70;99.90
63875;DHT22;51595;24.180;-110.296;2022-08-19T10:31:12;26.60;99.90
63875;DHT22;51595;24.180;-110.296;2022-08-19T10:33:40;26.70;99.90
63875;DHT22;51595;24.180;-110.296;2022-08-19T10:36:12;26.60;99.90
63875;DHT22;51595;24.180;-110.296;2022-08-19T10:38:41;26.40;99.90
63875;DHT22;51595;24.180;-110.296;2022-08-19T10:41:16;26.40;99.90
63875;DHT22;51595;24.180;-110.296;2022-08-19T10:43:43;26.40;99.90
63875;DHT22;51595;24.180;-110.296;2022-08-19T10:46:13;26.50;99.90
63875;DHT22;51595;24.180;-110.296;2022-08-19T10:48:43;26.40;99.90
63875;DHT22;51595;24.180;-110.296;2022-08-19T10:51:10;26.50;99.90
63875;DHT22;51595;24.180;-110.296;2022-08-19T10:53:55;26.60;99.90
63875;DHT22;51595;24.180;-110.296;2022-08-19T10:56:22;26.60;99.90
63875;DHT22;51595;24.180;-110.296;2022-08-19T10:59:07;26.70;99.90
63875;DHT22;51595;24.180;-110.296;2022-08-19T11:01:34;26.70;99.90
63875;DHT22;51595;24.180;-110.296;2022-08-19T11:04:02;26.70;99.90
63875;DHT22;51595;24.180;-110.296;2022-08-19T11:06:31;26.80;99.90
63875;DHT22;51595;24.180;-110.296;2022-08-19T11:08:58;26.70;99.90
63875;DHT22;51595;24.180;-110.296;2022-08-19T11:11:26;26.60;99.90
63875;DHT22;51595;24.180;-110.296;2022-08-19T11:13:54;26.50;99.90
63875;DHT22;51595;24.180;-110.296;2022-08-19T11:16:23;26.50;99.90
63875;DHT22;51595;24.180;-110.296;2022-08-19T11:18:53;26.40;99.90
63875;DHT22;51595;24.180;-110.296;2022-08-19T11:21:29;26.50;99.90
63875;DHT22;51595;24.180;-110.296;2022-08-19T11:24:20;26.50;99.90
63875;DHT22;51595;24.180;-110.296;2022-08-19T11:26:50;26.70;99.90
63875;DHT22;51595;24.180;-110.296;2022-08-19T11:29:19;26.70;99.90
63875;DHT22;51595;24.180;-110.296;2022-08-19T11:31:48;26.70;99.90
63875;DHT22;51595;24.180;-110.296;2022-08-19T11:34:24;26.60;99.90
63875;DHT22;51595;24.180;-110.296;2022-08-19T11:36:54;26.50;99.90
63875;DHT22;51595;24.180;-110.296;2022-08-19T11:39:25;26.60;99.90
63875;DHT22;51595;24.180;-110.296;2022-08-19T11:41:52;26.70;99.90
63875;DHT22;51595;24.180;-110.296;2022-08-19T11:44:19;26.70;99.90
63875;DHT22;51595;24.180;-110.296;2022-08-19T11:46:46;26.70;99.90
63875;DHT22;51595;24.180;-110.296;2022-08-19T11:49:19;26.70;99.90
63875;DHT22;51595;24.180;-110.296;2022-08-19T11:51:47;26.80;99.90
63875;DHT22;51595;24.180;-110.296;2022-08-19T11:54:16;26.70;99.90
63875;DHT22;51595;24.180;-110.296;2022-08-19T11:56:43;26.70;99.90
63875;DHT22;51595;24.180;-110.296;2022-08-19T11:59:12;26.70;99.90
63875;DHT22;51595;24.180;-110.296;2022-08-19T12:01:38;26.70;99.90
63875;DHT22;51595;24.180;-110.296;2022-08-19T12:04:06;26.50;99.90
63875;DHT22;51595;24.180;-110.296;2022-08-19T12:06:33;26.50;99.90
63875;DHT22;51595;24.180;-110.296;2022-08-19T12:09:04;26.50;99.90
63875;DHT22;51595;24.180;-110.296;2022-08-19T12:11:32;26.50;99.90
63875;DHT22;51595;24.180;-110.296;2022-08-19T12:13:58;26.50;99.90
63875;DHT22;51595;24.180;-110.296;2022-08-19T12:16:26;26.60;99.90
63875;DHT22;51595;24.180;-110.296;2022-08-19T12:18:55;26.60;99.90
63875;DHT22;51595;24.180;-110.296;2022-08-19T12:21:26;26.60;99.90
63875;DHT22;51595;24.180;-110.296;2022-08-19T12:23:57;26.70;99.90
63875;DHT22;51595;24.180;-110.296;2022-08-19T12:26:25;26.60;99.90
63875;DHT22;51595;24.180;-110.296;2022-08-19T12:28:53;26.60;99.90
63875;DHT22;51595;24.180;-110.296;2022-08-19T12:31:19;26.60;99.90
63875;DHT22;51595;24.180;-110.296;2022-08-19T12:33:46;26.50;99.90
63875;DHT22;51595;24.180;-110.296;2022-08-19T12:36:15;26.60;99.90
63875;DHT22;51595;24.180;-110.296;2022-08-19T12:38:42;26.40;99.90
63875;DHT22;51595;24.180;-110.296;2022-08-19T12:41:12;26.40;99.90
63875;DHT22;51595;24.180;-110.296;2022-08-19T12:43:39;26.40;99.90
63875;DHT22;51595;24.180;-110.296;2022-08-19T12:46:07;26.30;99.90
63875;DHT22;51595;24.180;-110.296;2022-08-19T12:48:34;26.30;99.90
63875;DHT22;51595;24.180;-110.296;2022-08-19T12:51:07;26.20;99.90
63875;DHT22;51595;24.180;-110.296;2022-08-19T12:53:34;26.20;99.90
63875;DHT22;51595;24.180;-110.296;2022-08-19T12:56:01;26.20;99.90
63875;DHT22;51595;24.180;-110.296;2022-08-19T12:58:28;26.30;99.90
63875;DHT22;51595;24.180;-110.296;2022-08-19T13:00:55;26.40;99.90
63875;DHT22;51595;24.180;-110.296;2022-08-19T13:03:21;26.40;99.90
63875;DHT22;51595;24.180;-110.296;2022-08-19T13:05:55;26.30;99.90
63875;DHT22;51595;24.180;-110.296;2022-08-19T13:08:21;26.40;99.90
63875;DHT22;51595;24.180;-110.296;2022-08-19T13:10:48;26.40;99.90
63875;DHT22;51595;24.180;-110.296;2022-08-19T13:13:14;26.50;99.90
63875;DHT22;51595;24.180;-110.296;2022-08-19T13:15:42;26.50;99.90
63875;DHT22;51595;24.180;-110.296;2022-08-19T13:18:12;26.40;99.90
63875;DHT22;51595;24.180;-110.296;2022-08-19T13:20:39;26.40;99.90
63875;DHT22;51595;24.180;-110.296;2022-08-19T13:23:09;26.40;99.90
63875;DHT22;51595;24.180;-110.296;2022-08-19T13:25:36;26.40;99.90
63875;DHT22;51595;24.180;-110.296;2022-08-19T13:28:03;26.50;99.90
63875;DHT22;51595;24.180;-110.296;2022-08-19T13:30:29;26.50;99.90
63875;DHT22;51595;24.180;-110.296;2022-08-19T13:33:14;26.60;99.90
63875;DHT22;51595;24.180;-110.296;2022-08-19T13:35:47;26.70;99.90
63875;DHT22;51595;24.180;-110.296;2022-08-19T13:38:18;26.90;99.90
63875;DHT22;51595;24.180;-110.296;2022-08-19T13:40:45;26.90;99.90
63875;DHT22;51595;24.180;-110.296;2022-08-19T13:43:12;26.90;99.90
63875;DHT22;51595;24.180;-110.296;2022-08-19T13:45:40;26.90;99.90
63875;DHT22;51595;24.180;-110.296;2022-08-19T13:48:07;27.00;99.90
63875;DHT22;51595;24.180;-110.296;2022-08-19T13:50:40;27.10;99.90
63875;DHT22;51595;24.180;-110.296;2022-08-19T13:53:08;27.20;99.90
63875;DHT22;51595;24.180;-110.296;2022-08-19T13:55:37;27.30;99.90
63875;DHT22;51595;24.180;-110.296;2022-08-19T13:58:04;27.50;99.90
63875;DHT22;51595;24.180;-110.296;2022-08-19T14:00:34;27.50;99.90
63875;DHT22;51595;24.180;-110.296;2022-08-19T14:03:01;27.70;99.90
63875;DHT22;51595;24.180;-110.296;2022-08-19T14:05:29;27.90;99.90
63875;DHT22;51595;24.180;-110.296;2022-08-19T14:07:56;27.90;99.90
63875;DHT22;51595;24.180;-110.296;2022-08-19T14:10:23;28.00;99.90
63875;DHT22;51595;24.180;-110.296;2022-08-19T14:12:54;28.00;99.90
63875;DHT22;51595;24.180;-110.296;2022-08-19T14:15:21;28.10;99.90
63875;DHT22;51595;24.180;-110.296;2022-08-19T14:17:49;28.30;99.90
63875;DHT22;51595;24.180;-110.296;2022-08-19T14:20:16;28.40;99.90
63875;DHT22;51595;24.180;-110.296;2022-08-19T14:22:43;28.50;99.90
63875;DHT22;51595;24.180;-110.296;2022-08-19T14:25:13;28.50;99.90
63875;DHT22;51595;24.180;-110.296;2022-08-19T14:27:41;28.30;99.90
63875;DHT22;51595;24.180;-110.296;2022-08-19T14:30:10;28.30;99.90
63875;DHT22;51595;24.180;-110.296;2022-08-19T14:32:38;28.50;99.90
63875;DHT22;51595;24.180;-110.296;2022-08-19T14:35:05;28.50;99.90
63875;DHT22;51595;24.180;-110.296;2022-08-19T14:37:34;28.50;99.90
63875;DHT22;51595;24.180;-110.296;2022-08-19T14:40:01;28.40;99.90
63875;DHT22;51595;24.180;-110.296;2022-08-19T14:42:28;28.40;99.90
63875;DHT22;51595;24.180;-110.296;2022-08-19T14:44:58;28.50;99.90
63875;DHT22;51595;24.180;-110.296;2022-08-19T14:47:25;28.80;99.90
63875;DHT22;51595;24.180;-110.296;2022-08-19T14:49:53;29.10;99.90
63875;DHT22;51595;24.180;-110.296;2022-08-19T14:52:20;29.50;99.90
63875;DHT22;51595;24.180;-110.296;2022-08-19T14:54:46;29.60;99.90
63875;DHT22;51595;24.180;-110.296;2022-08-19T14:57:14;29.50;99.90
63875;DHT22;51595;24.180;-110.296;2022-08-19T14:59:42;29.20;99.90
63875;DHT22;51595;24.180;-110.296;2022-08-19T15:02:10;29.20;99.90
63875;DHT22;51595;24.180;-110.296;2022-08-19T15:04:37;29.30;99.90
63875;DHT22;51595;24.180;-110.296;2022-08-19T15:07:05;29.70;99.90
63875;DHT22;51595;24.180;-110.296;2022-08-19T15:09:32;29.60;99.90
63875;DHT22;51595;24.180;-110.296;2022-08-19T15:11:59;29.30;99.90